TimeICT,TemperatureF,Dew PointF,Humidity,Sea Level PressureIn,VisibilityMPH,Wind Direction,Wind SpeedMPH,Gust SpeedMPH,PrecipitationIn,Events,Conditions,WindDirDegrees,DateUTC
12:00 AM,78.8,75.2,89,29.80,4.3,Variable,2.3,-,N/A,,Mostly Cloudy,0,2013-11-10 17:00:00
12:30 AM,78.8,75.2,89,29.80,3.7,Variable,5.8,-,N/A,Rain,Light Rain,0,2013-11-10 17:30:00
1:00 AM,80,78,90,29.75,5,Calm,Calm,,,Rain,Light Rain,,2013-11-10 18:00:00
1:00 AM,78.8,75.2,89,29.80,4.3,Variable,2.3,-,N/A,Rain,Light Rain,0,2013-11-10 18:00:00
1:30 AM,77.0,75.2,94,29.77,4.3,Calm,Calm,-,N/A,,Mostly Cloudy,0,2013-11-10 18:30:00
2:00 AM,77.0,75.2,94,29.77,4.3,Calm,Calm,-,N/A,,Mostly Cloudy,0,2013-11-10 19:00:00
2:30 AM,77.0,75.2,94,29.77,4.3,Calm,Calm,-,N/A,,Mostly Cloudy,0,2013-11-10 19:30:00
3:00 AM,77.0,75.2,94,29.74,4.3,Calm,Calm,-,N/A,,Mostly Cloudy,0,2013-11-10 20:00:00
3:30 AM,77.0,73.4,89,29.74,4.3,Calm,Calm,-,N/A,,Mostly Cloudy,0,2013-11-10 20:30:00
4:00 AM,77.0,73.4,89,29.74,4.3,Calm,Calm,-,N/A,,Mostly Cloudy,0,2013-11-10 21:00:00
4:30 AM,77.0,73.4,89,29.74,4.3,Calm,Calm,-,N/A,,Mostly Cloudy,0,2013-11-10 21:30:00
5:00 AM,77.0,73.4,89,29.74,4.3,Calm,Calm,-,N/A,,Mostly Cloudy,0,2013-11-10 22:00:00
5:30 AM,77.0,73.4,89,29.77,4.3,Calm,Calm,-,N/A,,Mostly Cloudy,0,2013-11-10 22:30:00
6:00 AM,77.0,73.4,89,29.77,5.0,Calm,Calm,-,N/A,,Mostly Cloudy,0,2013-11-10 23:00:00
6:30 AM,77.0,73.4,89,29.77,5.6,Calm,Calm,-,N/A,,Mostly Cloudy,0,2013-11-10 23:30:00
7:00 AM,78,77,94,29.74,6,Calm,Calm,,,,Scattered Clouds,,2013-11-11 00:00:00
7:00 AM,77.0,75.2,94,29.77,5.6,Calm,Calm,-,N/A,,Mostly Cloudy,0,2013-11-11 00:00:00
7:30 AM,78.8,75.2,89,29.80,6.2,Calm,Calm,-,N/A,,Mostly Cloudy,0,2013-11-11 00:30:00
8:00 AM,80.6,77.0,89,29.80,6.2,East,3.5,-,N/A,,Mostly Cloudy,100,2013-11-11 01:00:00
8:30 AM,82.4,77.0,84,29.80,6.2,East,5.8,-,N/A,,Mostly Cloudy,90,2013-11-11 01:30:00
9:00 AM,84.2,77.0,79,29.80,6.2,East,8.1,-,N/A,,Mostly Cloudy,80,2013-11-11 02:00:00
9:30 AM,84.2,75.2,74,29.80,6.2,ENE,5.8,-,N/A,,Mostly Cloudy,60,2013-11-11 02:30:00
10:00 AM,86.0,75.2,70,29.80,6.2,East,5.8,-,N/A,,Mostly Cloudy,90,2013-11-11 03:00:00
10:30 AM,87.8,75.2,66,29.80,6.2,East,6.9,-,N/A,,Mostly Cloudy,90,2013-11-11 03:30:00
11:00 AM,87.8,75.2,66,29.77,6.2,East,10.4,-,N/A,,Mostly Cloudy,100,2013-11-11 04:00:00
11:30 AM,86.0,73.4,66,29.77,6.2,East,5.8,-,N/A,,Mostly Cloudy,80,2013-11-11 04:30:00
12:00 PM,86.0,75.2,70,29.77,6.2,WSW,6.9,-,N/A,,Mostly Cloudy,240,2013-11-11 05:00:00
12:30 PM,86.0,75.2,70,29.77,6.2,WSW,5.8,-,N/A,,Mostly Cloudy,250,2013-11-11 05:30:00
1:00 PM,88,78,65,29.73,6,Calm,Calm,,,,Scattered Clouds,,2013-11-11 06:00:00
1:00 PM,87.8,75.2,66,29.74,6.2,WSW,8.1,-,N/A,,Mostly Cloudy,240,2013-11-11 06:00:00
1:30 PM,82.4,75.2,79,29.74,4.3,WSW,11.5,-,N/A,Rain,Rain,240,2013-11-11 06:30:00
2:00 PM,86.0,75.2,70,29.74,5.6,SW,6.9,-,N/A,,Mostly Cloudy,230,2013-11-11 07:00:00
2:30 PM,87.8,71.6,58,29.71,6.2,WSW,5.8,-,N/A,,Mostly Cloudy,250,2013-11-11 07:30:00
3:00 PM,86.0,71.6,62,29.68,6.2,WSW,9.2,-,N/A,,Mostly Cloudy,250,2013-11-11 08:00:00
3:30 PM,87.8,71.6,58,29.68,6.2,WSW,5.8,-,N/A,,Mostly Cloudy,250,2013-11-11 08:30:00
4:00 PM,86.0,71.6,62,29.71,6.2,WSW,8.1,-,N/A,,Mostly Cloudy,240,2013-11-11 09:00:00
4:30 PM,84.2,71.6,66,29.71,6.2,WSW,5.8,-,N/A,,Mostly Cloudy,240,2013-11-11 09:30:00
5:00 PM,84.2,73.4,70,29.68,6.2,SW,5.8,-,N/A,,Mostly Cloudy,230,2013-11-11 10:00:00
5:30 PM,82.4,73.4,74,29.71,6.2,WSW,4.6,-,N/A,,Mostly Cloudy,240,2013-11-11 10:30:00
6:00 PM,80.6,75.2,84,29.71,6.2,SSW,3.5,-,N/A,,Mostly Cloudy,210,2013-11-11 11:00:00
6:30 PM,80.6,75.2,84,29.74,6.2,Calm,Calm,-,N/A,,Mostly Cloudy,0,2013-11-11 11:30:00
7:00 PM,83,78,79,29.70,6,Calm,Calm,,,,Scattered Clouds,,2013-11-11 12:00:00
7:00 PM,78.8,75.2,89,29.74,6.2,Calm,Calm,-,N/A,,Mostly Cloudy,0,2013-11-11 12:00:00
7:30 PM,78.8,75.2,89,29.77,6.2,Calm,Calm,-,N/A,,Mostly Cloudy,0,2013-11-11 12:30:00
8:00 PM,78.8,75.2,89,29.77,6.2,Calm,Calm,-,N/A,,Mostly Cloudy,0,2013-11-11 13:00:00
8:30 PM,78.8,75.2,89,29.77,5.6,Calm,Calm,-,N/A,,Mostly Cloudy,0,2013-11-11 13:30:00
9:00 PM,78.8,75.2,89,29.77,5.6,Variable,2.3,-,N/A,,Mostly Cloudy,0,2013-11-11 14:00:00
9:30 PM,78.8,75.2,89,29.80,5.6,SSE,2.3,-,N/A,,Mostly Cloudy,150,2013-11-11 14:30:00
10:00 PM,78.8,75.2,89,29.80,5.6,SE,2.3,-,N/A,,Mostly Cloudy,140,2013-11-11 15:00:00
10:30 PM,78.8,75.2,89,29.80,5.6,Calm,Calm,-,N/A,,Mostly Cloudy,0,2013-11-11 15:30:00
11:00 PM,78.8,75.2,89,29.80,5.6,East,9.2,-,N/A,,Mostly Cloudy,100,2013-11-11 16:00:00